Time;durP1;ratioP1;P1;durP2;ratioP2;P2;SDS_P1;SDS_P2;PMS_P1;PMS_P2;Temp;Humidity;BMP_temperature;BMP_pressure;BME280_temperature;BME280_humidity;BME280_pressure;Samples;Min_cycle;Max_cycle;Signal;HPM_P1;HPM_P2
2023/09/28 00:00:36;;;;;;;0.40;0.20;;;;;;;14.39;100.00;100300.50;5012412;28;20819;-51
2023/09/28 00:03:00;;;;;;;0.40;0.20;;;;;;;14.57;100.00;100297.97;5012241;28;20482;-50
2023/09/28 00:05:28;;;;;;;0.40;0.20;;;;;;;14.49;100.00;100282.22;5011896;28;20887;-49
2023/09/28 00:07:55;;;;;;;0.40;0.20;;;;;;;14.04;100.00;100264.59;5012159;28;20547;-50
2023/09/28 00:10:23;;;;;;;0.40;0.20;;;;;;;14.12;100.00;100270.47;5012251;28;20502;-50
2023/09/28 00:12:52;;;;;;;0.40;0.20;;;;;;;14.19;100.00;100276.41;5013178;28;20635;-50
2023/09/28 00:15:21;;;;;;;0.40;0.20;;;;;;;14.40;100.00;100264.78;5009630;28;20453;-50
2023/09/28 00:17:48;;;;;;;0.40;0.20;;;;;;;14.44;100.00;100262.88;5015984;28;20459;-50
2023/09/28 00:20:19;;;;;;;0.40;0.20;;;;;;;14.58;100.00;100264.91;5015647;28;20969;-51
2023/09/28 00:22:51;;;;;;;0.83;0.83;;;;;;;14.56;100.00;100265.00;5016120;28;20459;-51
2023/09/28 00:25:19;;;;;;;0.40;0.20;;;;;;;14.65;100.00;100277.94;5015978;28;20444;-50
2023/09/28 00:27:47;;;;;;;0.40;0.20;;;;;;;14.78;100.00;100286.25;5015691;28;20845;-50
2023/09/28 00:30:20;;;;;;;0.40;0.20;;;;;;;14.64;100.00;100269.97;5006035;28;20512;-51
2023/09/28 00:32:48;;;;;;;0.40;0.20;;;;;;;14.65;100.00;100272.56;5012246;28;20487;-52
2023/09/28 00:35:16;;;;;;;0.40;0.20;;;;;;;14.69;100.00;100278.69;5015859;28;20543;-52
2023/09/28 00:37:44;;;;;;;0.40;0.20;;;;;;;14.73;100.00;100277.59;5012477;28;20543;-51
2023/09/28 00:40:31;;;;;;;0.40;0.20;;;;;;;14.53;100.00;100286.53;5015707;28;20452;-51
2023/09/28 00:42:59;;;;;;;0.40;0.20;;;;;;;14.64;100.00;100272.66;5015643;28;20536;-51
2023/09/28 00:45:27;;;;;;;0.40;0.20;;;;;;;14.52;100.00;100274.94;5002869;28;20454;-51
2023/09/28 00:47:58;;;;;;;0.40;0.20;;;;;;;14.74;100.00;100271.28;5015750;28;20499;-51
2023/09/28 00:50:26;;;;;;;0.40;0.20;;;;;;;14.86;100.00;100280.56;5015282;28;20973;-51
2023/09/28 00:52:57;;;;;;;0.40;0.20;;;;;;;14.88;100.00;100282.22;5015469;28;20488;-51
2023/09/28 00:55:24;;;;;;;0.40;0.20;;;;;;;14.88;100.00;100287.59;5015002;28;20449;-51
2023/09/28 00:57:51;;;;;;;0.40;0.20;;;;;;;14.87;100.00;100282.31;5015176;28;20480;-51
2023/09/28 01:00:18;;;;;;;0.40;0.20;;;;;;;14.86;100.00;100284.13;5015133;28;20471;-51
2023/09/28 01:02:52;;;;;;;0.40;0.20;;;;;;;14.82;100.00;100286.06;5015264;28;20452;-51
2023/09/28 01:05:23;;;;;;;0.40;0.20;;;;;;;14.73;100.00;100281.13;5014962;28;20444;-52
2023/09/28 01:07:49;;;;;;;0.40;0.20;;;;;;;14.74;100.00;100285.53;5015588;28;20456;-51
2023/09/28 01:10:23;;;;;;;0.40;0.20;;;;;;;14.76;100.00;100280.97;5014747;28;20861;-52
2023/09/28 01:12:50;;;;;;;1.50;1.40;;;;;;;14.68;100.00;100293.00;5015111;28;20495;-52
2023/09/28 01:15:17;;;;;;;0.40;0.20;;;;;;;14.68;100.00;100288.50;5009599;28;20471;-52
2023/09/28 01:17:43;;;;;;;0.40;0.20;;;;;;;14.67;100.00;100280.56;5015008;28;20452;-51
2023/09/28 01:20:31;;;;;;;0.40;0.30;;;;;;;14.67;100.00;100294.81;5014927;28;20448;-52
2023/09/28 01:22:58;;;;;;;0.40;0.20;;;;;;;14.92;100.00;100302.56;5014957;28;20441;-52
2023/09/28 01:25:26;;;;;;;0.40;0.20;;;;;;;14.79;100.00;100294.22;5014512;28;21008;-52
2023/09/28 01:27:52;;;;;;;0.40;0.20;;;;;;;14.75;100.00;100278.38;5014875;28;20555;-51
2023/09/28 01:30:19;;;;;;;3.90;3.10;;;;;;;14.37;100.00;100277.41;5004350;28;20456;-51
2023/09/28 01:32:45;;;;;;;0.40;0.20;;;;;;;14.58;100.00;100275.63;5010901;28;20531;-51
2023/09/28 01:35:12;;;;;;;0.40;0.20;;;;;;;14.72;100.00;100268.69;5014442;28;20452;-52
2023/09/28 01:37:47;;;;;;;0.40;0.20;;;;;;;14.78;100.00;100280.91;5011097;28;20515;-52
2023/09/28 01:40:14;;;;;;;0.40;0.20;;;;;;;14.87;100.00;100288.53;5014506;28;20849;-51
2023/09/28 01:42:41;;;;;;;0.40;0.20;;;;;;;14.48;100.00;100273.34;5014235;28;20535;-52
2023/09/28 01:45:07;;;;;;;0.40;0.30;;;;;;;14.47;100.00;100252.88;5003743;28;20540;-51
2023/09/28 01:47:34;;;;;;;0.40;0.20;;;;;;;14.38;100.00;100255.06;5012540;28;20472;-52
2023/09/28 01:50:01;;;;;;;0.40;0.20;;;;;;;14.74;100.00;100298.91;5014279;28;20871;-51
2023/09/28 01:52:27;;;;;;;0.40;0.20;;;;;;;14.81;100.00;100296.84;5014256;28;20484;-52
2023/09/28 01:54:54;;;;;;;0.40;0.20;;;;;;;14.84;100.00;100299.38;5014421;28;20484;-51
2023/09/28 01:57:20;;;;;;;0.40;0.20;;;;;;;14.94;100.00;100308.72;5014036;28;20929;-51
2023/09/28 01:59:47;;;;;;;0.40;0.20;;;;;;;15.06;100.00;100313.47;5014070;28;20495;-51
2023/09/28 02:02:16;;;;;;;0.40;0.20;;;;;;;15.05;100.00;100305.53;5013890;28;20933;-51
2023/09/28 02:04:43;;;;;;;0.40;0.20;;;;;;;14.97;100.00;100311.25;5014259;28;20519;-52
2023/09/28 02:07:10;;;;;;;0.40;0.20;;;;;;;14.93;100.00;100306.97;5013837;28;20480;-52
2023/09/28 02:09:36;;;;;;;0.40;0.20;;;;;;;14.93;100.00;100284.69;5014159;28;20459;-51
2023/09/28 02:12:03;;;;;;;0.40;0.20;;;;;;;14.84;100.00;100266.41;5013676;28;20448;-51
2023/09/28 02:14:30;;;;;;;0.40;0.20;;;;;;;14.91;100.00;100292.78;5008271;28;20539;-52
2023/09/28 02:16:56;;;;;;;0.40;0.20;;;;;;;15.04;100.00;100290.41;5013539;28;20468;-52
2023/09/28 02:19:23;;;;;;;0.40;0.20;;;;;;;15.01;100.00;100311.97;5014060;28;20460;-52
2023/09/28 02:21:51;;;;;;;0.40;0.20;;;;;;;15.18;100.00;100305.81;5013685;28;20488;-52
2023/09/28 02:24:17;;;;;;;0.40;0.20;;;;;;;15.05;100.00;100308.22;5013606;28;20537;-52
2023/09/28 02:26:47;;;;;;;0.40;0.30;;;;;;;15.21;100.00;100311.03;5013565;28;20469;-52
2023/09/28 02:29:13;;;;;;;0.40;0.20;;;;;;;15.07;100.00;100299.16;5012205;28;20805;-52
2023/09/28 02:31:43;;;;;;;0.40;0.20;;;;;;;15.04;100.00;100299.31;5001111;28;20453;-52
2023/09/28 02:34:10;;;;;;;0.40;0.20;;;;;;;15.01;100.00;100302.13;5013364;28;20579;-52
2023/09/28 02:36:36;;;;;;;0.40;0.30;;;;;;;15.00;100.00;100310.25;5012750;28;20971;-51
2023/09/28 02:39:07;;;;;;;0.40;0.20;;;;;;;14.97;100.00;100305.91;5010174;28;20462;-52
2023/09/28 02:41:34;;;;;;;0.40;0.30;;;;;;;15.20;100.00;100307.47;4995928;28;20452;-52
2023/09/28 02:44:00;;;;;;;0.40;0.20;;;;;;;15.10;100.00;100304.41;5011390;28;20547;-52
2023/09/28 02:46:27;;;;;;;0.40;0.20;;;;;;;15.19;100.00;100304.88;5002456;28;21055;-52
2023/09/28 02:48:55;;;;;;;0.40;0.20;;;;;;;14.99;100.00;100303.16;5013167;28;20449;-52
2023/09/28 02:51:22;;;;;;;3.63;3.33;;;;;;;14.90;100.00;100300.88;5013236;28;20455;-52
2023/09/28 02:53:48;;;;;;;2.20;1.27;;;;;;;14.84;100.00;100301.19;5012888;28;21095;-51
2023/09/28 02:56:15;;;;;;;0.40;0.20;;;;;;;14.72;100.00;100298.13;5013220;28;20481;-51
2023/09/28 02:58:42;;;;;;;0.40;0.20;;;;;;;14.81;100.00;100296.84;5012888;28;20507;-52
2023/09/28 03:01:08;;;;;;;0.40;0.20;;;;;;;14.84;100.00;100296.69;5013336;28;20452;-52
2023/09/28 03:03:35;;;;;;;0.40;0.20;;;;;;;14.70;100.00;100297.34;5012937;28;20459;-51
2023/09/28 03:06:04;;;;;;;0.40;0.20;;;;;;;14.88;100.00;100294.75;5012930;28;20909;-51
2023/09/28 03:08:31;;;;;;;0.40;0.20;;;;;;;14.80;100.00;100284.38;5012756;28;20930;-51
2023/09/28 03:10:58;;;;;;;0.40;0.20;;;;;;;14.84;100.00;100286.00;5012736;28;20449;-51
2023/09/28 03:13:26;;;;;;;0.40;0.20;;;;;;;14.88;100.00;100290.25;5012722;28;20492;-52
2023/09/28 03:15:53;;;;;;;0.40;0.20;;;;;;;14.88;100.00;100292.94;5006922;28;20500;-51
2023/09/28 03:18:20;;;;;;;0.40;0.20;;;;;;;14.93;100.00;100292.72;5012933;28;20452;-52
2023/09/28 03:20:48;;;;;;;0.40;0.20;;;;;;;14.88;100.00;100284.91;5012748;28;20459;-52
2023/09/28 03:23:14;;;;;;;0.40;0.20;;;;;;;14.95;100.00;100289.06;5012568;28;20530;-52
2023/09/28 03:25:42;;;;;;;0.40;0.20;;;;;;;14.91;100.00;100284.75;5012516;28;20475;-52
2023/09/28 03:28:09;;;;;;;0.40;0.20;;;;;;;14.95;100.00;100278.34;5012672;28;20823;-51
2023/09/28 03:30:35;;;;;;;0.40;0.20;;;;;;;14.87;100.00;100276.94;4999693;28;20928;-51
2023/09/28 03:33:02;;;;;;;0.40;0.20;;;;;;;14.88;100.00;100281.38;5011479;28;20579;-51
2023/09/28 03:35:29;;;;;;;0.40;0.20;;;;;;;14.88;100.00;100284.03;5012596;28;20949;-51
2023/09/28 03:37:57;;;;;;;0.40;0.20;;;;;;;14.72;100.00;100287.44;5009264;28;20949;-51
2023/09/28 03:40:33;;;;;;;0.40;0.20;;;;;;;14.77;100.00;100284.53;5012615;28;20503;-52
2023/09/28 03:43:00;;;;;;;0.40;0.20;;;;;;;14.65;100.00;100288.63;4988656;28;20451;-51
2023/09/28 03:45:27;;;;;;;0.40;0.20;;;;;;;14.47;100.00;100294.81;5000179;28;20481;-51
2023/09/28 03:47:53;;;;;;;0.40;0.20;;;;;;;14.37;100.00;100299.66;5013630;28;20455;-51
2023/09/28 03:50:22;;;;;;;0.40;0.20;;;;;;;14.32;100.00;100300.81;5016708;28;20448;-51
2023/09/28 03:52:49;;;;;;;0.40;0.20;;;;;;;14.26;100.00;100304.63;5016838;28;20520;-51
2023/09/28 03:55:18;;;;;;;0.40;0.20;;;;;;;14.16;100.00;100303.28;5016474;28;20825;-51
2023/09/28 03:57:45;;;;;;;0.40;0.20;;;;;;;14.33;100.00;100313.25;5016581;28;20456;-51
2023/09/28 04:00:14;;;;;;;0.40;0.20;;;;;;;14.13;100.00;100314.13;4998745;28;20946;-50
2023/09/28 04:02:46;;;;;;;0.40;0.20;;;;;;;14.15;100.00;100310.44;5016426;28;20827;-51
2023/09/28 04:05:18;;;;;;;0.40;0.20;;;;;;;13.92;100.00;100314.06;5015972;28;20953;-50
2023/09/28 04:07:44;;;;;;;0.40;0.20;;;;;;;13.91;100.00;100307.00;4996559;28;20552;-51
2023/09/28 04:10:11;;;;;;;0.40;0.20;;;;;;;13.88;100.00;100307.13;4996803;28;20457;-50
2023/09/28 04:12:38;;;;;;;0.40;0.20;;;;;;;13.93;100.00;100307.78;4996368;28;20966;-50
2023/09/28 04:15:07;;;;;;;0.40;0.20;;;;;;;13.97;100.00;100304.97;4990576;28;20458;-50
2023/09/28 04:17:34;;;;;;;0.40;0.20;;;;;;;14.01;100.00;100302.13;4996458;28;20469;-50
2023/09/28 04:20:04;;;;;;;0.40;0.20;;;;;;;14.74;100.00;100311.44;4996168;28;20457;-50
2023/09/28 04:22:31;;;;;;;0.40;0.20;;;;;;;14.25;100.00;100310.88;4996536;28;20449;-50
2023/09/28 04:24:57;;;;;;;0.40;0.20;;;;;;;14.30;100.00;100310.72;4996379;28;20445;-51
2023/09/28 04:27:24;;;;;;;0.40;0.20;;;;;;;14.35;100.00;100309.56;4996287;28;20480;-51
2023/09/28 04:29:50;;;;;;;0.40;0.20;;;;;;;14.62;100.00;100323.56;4989636;28;20541;-51
2023/09/28 04:32:17;;;;;;;0.40;0.20;;;;;;;14.62;100.00;100328.03;4989057;28;20552;-51
2023/09/28 04:34:44;;;;;;;0.40;0.20;;;;;;;14.34;100.00;100331.88;4995819;28;20497;-51
2023/09/28 04:37:12;;;;;;;0.40;0.20;;;;;;;14.22;100.00;100327.06;4993469;28;20527;-51
2023/09/28 04:39:38;;;;;;;0.40;0.20;;;;;;;14.21;100.00;100331.53;4970559;28;20484;-51
2023/09/28 04:42:05;;;;;;;0.40;0.20;;;;;;;14.26;100.00;100338.53;4996153;28;20453;-51
2023/09/28 04:44:31;;;;;;;0.80;0.80;;;;;;;14.23;100.00;100334.16;4972710;28;20457;-51
2023/09/28 04:46:57;;;;;;;0.40;0.20;;;;;;;14.22;100.00;100337.75;4989161;28;20491;-51
2023/09/28 04:49:24;;;;;;;0.40;0.20;;;;;;;14.12;100.00;100339.97;4970026;28;20453;-51
2023/09/28 04:51:51;;;;;;;0.40;0.20;;;;;;;14.03;100.00;100337.69;4995982;28;20453;-51
2023/09/28 04:54:18;;;;;;;0.40;0.20;;;;;;;14.09;100.00;100341.88;4995837;28;20552;-51
2023/09/28 04:56:45;;;;;;;0.40;0.20;;;;;;;14.37;100.00;100363.84;4995573;28;20552;-52
2023/09/28 04:59:12;;;;;;;0.40;0.20;;;;;;;14.37;100.00;100365.66;4995357;28;20546;-51
2023/09/28 05:01:39;;;;;;;0.40;0.20;;;;;;;14.38;100.00;100364.72;4995550;28;20460;-51
2023/09/28 05:04:05;;;;;;;0.40;0.27;;;;;;;14.55;100.00;100369.38;4995796;28;20445;-51
2023/09/28 05:06:32;;;;;;;0.40;0.20;;;;;;;14.14;100.00;100369.31;5005107;28;20480;-51
2023/09/28 05:08:58;;;;;;;0.40;0.20;;;;;;;14.30;100.00;100381.09;5015102;28;20824;-51
2023/09/28 05:11:25;;;;;;;0.40;0.20;;;;;;;14.32;100.00;100376.56;5014665;28;20866;-51
2023/09/28 05:13:51;;;;;;;0.40;0.20;;;;;;;14.04;100.00;100375.97;5014252;28;20484;-51
2023/09/28 05:16:19;;;;;;;0.40;0.20;;;;;;;14.07;100.00;100371.38;5009322;28;20528;-51
2023/09/28 05:18:46;;;;;;;0.40;0.20;;;;;;;14.18;100.00;100373.59;5015050;28;20453;-51
2023/09/28 05:21:13;;;;;;;0.40;0.20;;;;;;;14.29;100.00;100371.34;5014551;28;20540;-51
2023/09/28 05:23:39;;;;;;;0.40;0.20;;;;;;;14.16;100.00;100375.47;5014567;28;20476;-51
2023/09/28 05:26:06;;;;;;;0.40;0.20;;;;;;;14.17;100.00;100372.72;5014000;28;21053;-51
2023/09/28 05:28:32;;;;;;;0.40;0.20;;;;;;;14.04;100.00;100371.50;5014659;28;20815;-51
2023/09/28 05:30:59;;;;;;;0.40;0.20;;;;;;;14.14;100.00;100375.53;4982930;28;21066;-51
2023/09/28 05:33:26;;;;;;;0.40;0.20;;;;;;;14.41;100.00;100377.97;5014618;28;20498;-51
2023/09/28 05:35:53;;;;;;;0.40;0.20;;;;;;;14.43;100.00;100371.63;5014388;28;20473;-51
2023/09/28 05:38:19;;;;;;;0.40;0.20;;;;;;;14.40;100.00;100378.91;5011290;28;20551;-51
2023/09/28 05:40:46;;;;;;;0.40;0.30;;;;;;;14.26;100.00;100381.31;5014350;28;20452;-51
2023/09/28 05:43:12;;;;;;;0.40;0.20;;;;;;;14.12;100.00;100374.72;5014389;28;20499;-51
2023/09/28 05:45:39;;;;;;;0.83;0.83;;;;;;;14.16;100.00;100378.13;4984710;28;20575;-51
2023/09/28 05:48:06;;;;;;;0.40;0.20;;;;;;;14.23;100.00;100382.28;5014515;28;20452;-51
2023/09/28 05:50:32;;;;;;;0.40;0.20;;;;;;;14.22;100.00;100383.22;5014059;28;20495;-51
2023/09/28 05:52:58;;;;;;;0.40;0.20;;;;;;;14.17;100.00;100383.41;5014275;28;20453;-51
2023/09/28 05:55:25;;;;;;;0.40;0.20;;;;;;;14.14;100.00;100386.22;5013960;28;20539;-51
2023/09/28 05:57:53;;;;;;;0.40;0.20;;;;;;;14.12;100.00;100396.13;5013977;28;20449;-51
2023/09/28 06:00:19;;;;;;;0.40;0.20;;;;;;;14.23;100.00;100398.31;5013853;28;20487;-51
2023/09/28 06:02:46;;;;;;;0.40;0.20;;;;;;;14.23;100.00;100399.19;5014241;28;20449;-51
2023/09/28 06:05:12;;;;;;;0.40;0.20;;;;;;;14.28;100.00;100407.03;5013905;28;20531;-51
2023/09/28 06:07:39;;;;;;;0.40;0.20;;;;;;;14.35;100.00;100418.34;5013944;28;20457;-51
2023/09/28 06:10:08;;;;;;;0.40;0.20;;;;;;;14.41;100.00;100420.78;5013219;28;20467;-51
2023/09/28 06:12:36;;;;;;;0.40;0.20;;;;;;;14.35;100.00;100429.03;5013667;28;20487;-51
2023/09/28 06:15:04;;;;;;;0.40;0.20;;;;;;;14.27;100.00;100426.69;5008053;28;20498;-51
2023/09/28 06:17:33;;;;;;;0.40;0.20;;;;;;;14.37;100.00;100437.84;5013839;28;20473;-51
2023/09/28 06:20:00;;;;;;;0.40;0.20;;;;;;;14.27;100.00;100431.16;5013854;28;20456;-51
2023/09/28 06:22:27;;;;;;;0.40;0.20;;;;;;;14.08;100.00;100426.56;5013625;28;20448;-51
2023/09/28 06:24:54;;;;;;;0.93;0.93;;;;;;;14.22;100.00;100432.22;5013392;28;20445;-51
2023/09/28 06:27:21;;;;;;;0.40;0.20;;;;;;;14.23;100.00;100435.75;5013673;28;20531;-51
2023/09/28 06:29:52;;;;;;;0.40;0.20;;;;;;;14.37;100.00;100437.84;5007327;28;20454;-51
2023/09/28 06:32:22;;;;;;;0.40;0.20;;;;;;;14.53;100.00;100441.69;5006797;28;20935;-51
2023/09/28 06:34:50;;;;;;;0.40;0.20;;;;;;;14.85;100.00;100434.94;4988284;28;20524;-51
2023/09/28 06:37:16;;;;;;;0.40;0.20;;;;;;;14.61;100.00;100422.59;5010122;28;20486;-51
2023/09/28 06:39:43;;;;;;;0.40;0.20;;;;;;;14.60;100.00;100419.06;5013542;28;20937;-51
2023/09/28 06:42:09;;;;;;;0.40;0.20;;;;;;;14.65;100.00;100427.75;5013365;28;20632;-51
2023/09/28 06:44:56;;;;;;;0.40;0.20;;;;;;;14.91;100.00;100434.66;5004240;28;20445;-51
2023/09/28 06:47:22;;;;;;;0.40;0.20;;;;;;;14.92;100.00;100428.34;5010082;28;20564;-51
2023/09/28 06:50:00;;;;;;;0.40;0.20;;;;;;;15.09;100.00;100419.59;5013187;28;20511;-51
2023/09/28 06:52:27;;;;;;;0.40;0.20;;;;;;;15.05;100.00;100424.19;5012904;28;21009;-51
2023/09/28 06:54:53;;;;;;;0.40;0.20;;;;;;;15.27;100.00;100437.50;5013061;28;20591;-51
2023/09/28 06:57:20;;;;;;;0.40;0.20;;;;;;;15.39;100.00;100444.09;5012951;28;20571;-51
2023/09/28 06:59:47;;;;;;;0.40;0.20;;;;;;;15.49;100.00;100448.13;5013094;28;20449;-51
2023/09/28 07:02:14;;;;;;;0.40;0.20;;;;;;;15.49;100.00;100453.47;5012813;28;20527;-51
2023/09/28 07:04:41;;;;;;;0.40;0.20;;;;;;;15.45;100.00;100453.66;5013160;28;20849;-51
2023/09/28 07:07:07;;;;;;;0.40;0.20;;;;;;;15.45;100.00;100453.66;5013199;28;20488;-51
2023/09/28 07:09:35;;;;;;;0.40;0.20;;;;;;;15.61;100.00;100460.06;5012954;28;20457;-51
2023/09/28 07:12:22;;;;;;;0.40;0.20;;;;;;;15.81;100.00;100456.47;4992672;28;20438;-51
2023/09/28 07:14:49;;;;;;;0.40;0.20;;;;;;;15.92;100.00;100460.38;5007435;28;20580;-51
2023/09/28 07:17:15;;;;;;;0.40;0.20;;;;;;;15.79;100.00;100442.28;5012713;28;20476;-51
2023/09/28 07:19:42;;;;;;;0.40;0.20;;;;;;;15.84;100.00;100440.25;5012950;28;20539;-51
2023/09/28 07:22:09;;;;;;;0.40;0.20;;;;;;;15.97;100.00;100455.66;4995327;28;20427;-51
2023/09/28 07:24:36;;;;;;;0.40;0.20;;;;;;;16.08;100.00;100457.84;5012556;28;20539;-51
2023/09/28 07:27:03;;;;;;;0.40;0.20;;;;;;;16.08;100.00;100462.31;5012525;28;20491;-52
2023/09/28 07:29:29;;;;;;;0.40;0.20;;;;;;;16.10;100.00;100466.66;5008630;28;20532;-52
2023/09/28 07:31:55;;;;;;;0.40;0.20;;;;;;;16.35;100.00;100470.84;5002592;28;20938;-51
2023/09/28 07:34:22;;;;;;;0.40;0.20;;;;;;;16.69;100.00;100473.59;5012744;28;20553;-51
2023/09/28 07:36:49;;;;;;;0.40;0.20;;;;;;;16.76;100.00;100474.16;5012565;28;20555;-52
2023/09/28 07:39:15;;;;;;;0.40;0.20;;;;;;;16.75;100.00;100472.44;5009375;28;20552;-51
2023/09/28 07:41:41;;;;;;;0.40;0.20;;;;;;;16.72;100.00;100464.50;5012674;28;20449;-52
2023/09/28 07:44:08;;;;;;;0.40;0.20;;;;;;;16.85;100.00;100471.84;5009508;28;20817;-52
2023/09/28 07:46:34;;;;;;;0.40;0.20;;;;;;;17.07;99.26;100465.38;5002561;28;20469;-52
2023/09/28 07:49:01;;;;;;;0.40;0.20;;;;;;;17.54;97.96;100470.88;5012417;28;20449;-52
2023/09/28 07:51:27;;;;;;;0.40;0.20;;;;;;;16.93;99.87;100462.53;5012392;28;20915;-52
2023/09/28 07:53:54;;;;;;;0.40;0.20;;;;;;;17.01;99.72;100466.56;5012221;28;21020;-52
2023/09/28 07:56:20;;;;;;;0.40;0.20;;;;;;;17.08;99.62;100464.41;5012340;28;20507;-51
2023/09/28 07:58:47;;;;;;;0.40;0.20;;;;;;;17.34;98.63;100465.72;5012734;28;20561;-52
2023/09/28 08:01:15;;;;;;;0.40;0.20;;;;;;;17.23;98.95;100482.41;5012190;28;20505;-52
2023/09/28 08:03:41;;;;;;;0.40;0.20;;;;;;;17.50;98.04;100472.00;5012052;28;20903;-52
2023/09/28 08:06:10;;;;;;;0.40;0.20;;;;;;;17.56;98.35;100474.38;5011997;28;21008;-51
2023/09/28 08:08:54;;;;;;;0.40;0.20;;;;;;;17.66;97.45;100466.66;5011936;28;20419;-52
2023/09/28 08:11:22;;;;;;;0.40;0.20;;;;;;;17.92;96.30;100476.00;5012274;28;20551;-52
2023/09/28 08:13:48;;;;;;;0.40;0.20;;;;;;;18.04;95.56;100481.56;5012150;28;20480;-52
2023/09/28 08:16:15;;;;;;;0.40;0.20;;;;;;;18.39;94.43;100475.16;5005734;28;20490;-52
2023/09/28 08:18:41;;;;;;;0.40;0.20;;;;;;;18.36;93.61;100478.84;5012007;28;20494;-52
2023/09/28 08:21:08;;;;;;;0.40;0.20;;;;;;;18.66;93.75;100486.16;5012199;28;20462;-52
2023/09/28 08:23:37;;;;;;;0.40;0.20;;;;;;;18.83;92.69;100486.88;5011868;28;20466;-52
2023/09/28 08:26:06;;;;;;;1.13;1.13;;;;;;;18.88;92.53;100489.28;5011914;28;20845;-52
2023/09/28 08:28:33;;;;;;;0.40;0.20;;;;;;;18.89;92.36;100493.72;5012119;28;20457;-52
2023/09/28 08:31:03;;;;;;;0.40;0.20;;;;;;;19.12;92.50;100482.44;4997831;28;20425;-52
2023/09/28 08:33:29;;;;;;;0.40;0.20;;;;;;;19.17;92.30;100476.75;5012160;28;20484;-52
2023/09/28 08:35:56;;;;;;;0.40;0.20;;;;;;;19.34;91.87;100481.13;5015261;28;20496;-52
2023/09/28 08:38:22;;;;;;;0.40;0.20;;;;;;;19.59;90.87;100475.94;5012234;28;20518;-52
2023/09/28 08:40:50;;;;;;;0.40;0.30;;;;;;;19.32;90.00;100473.13;4998234;28;20427;-52
2023/09/28 08:43:21;;;;;;;0.40;0.20;;;;;;;19.63;89.13;100477.50;5015743;28;20467;-52
2023/09/28 08:45:51;;;;;;;0.40;0.20;;;;;;;19.78;87.96;100491.84;5002743;28;20468;-52
2023/09/28 08:48:21;;;;;;;0.40;0.20;;;;;;;19.82;87.74;100496.94;5015426;28;20501;-52
2023/09/28 08:50:54;;;;;;;0.40;0.20;;;;;;;19.76;88.22;100497.34;5015203;28;21276;-52
2023/09/28 08:53:21;;;;;;;0.40;0.20;;;;;;;20.18;87.75;100495.56;5015559;28;20419;-52
2023/09/28 08:55:48;;;;;;;0.40;0.20;;;;;;;19.94;87.89;100494.44;5015455;28;20504;-51
2023/09/28 08:58:16;;;;;;;0.40;0.20;;;;;;;20.01;88.09;100482.28;5015502;28;20434;-52
2023/09/28 09:00:42;;;;;;;0.40;0.20;;;;;;;19.83;87.86;100489.72;5015150;28;20877;-52
2023/09/28 09:03:09;;;;;;;0.40;0.20;;;;;;;19.95;87.73;100480.84;5015006;28;20522;-51
2023/09/28 09:05:39;;;;;;;0.40;0.20;;;;;;;19.97;87.55;100476.22;4989037;28;20978;-51
2023/09/28 09:08:07;;;;;;;0.40;0.20;;;;;;;20.05;87.08;100473.03;5015183;28;20420;-51
2023/09/28 09:10:35;;;;;;;0.40;0.20;;;;;;;20.09;87.16;100470.03;5014946;28;20449;-52
2023/09/28 09:13:02;;;;;;;0.40;0.20;;;;;;;20.19;86.65;100470.31;5014968;28;20452;-51
2023/09/28 09:15:28;;;;;;;0.40;0.20;;;;;;;20.28;86.99;100469.66;5009159;28;20544;-52
2023/09/28 09:18:00;;;;;;;0.40;0.20;;;;;;;20.40;86.11;100476.09;5014705;28;20437;-51
2023/09/28 09:20:29;;;;;;;0.40;0.20;;;;;;;20.51;85.96;100475.44;4997671;28;20452;-51
2023/09/28 09:23:09;;;;;;;0.40;0.20;;;;;;;20.57;86.46;100478.59;5014786;28;20453;-52
2023/09/28 09:25:53;;;;;;;0.40;0.20;;;;;;;21.07;84.35;100476.09;5014816;28;20435;-52
2023/09/28 09:28:29;;;;;;;0.40;0.20;;;;;;;21.26;83.13;100469.38;5014714;28;20456;-52
2023/09/28 09:30:56;;;;;;;0.40;0.20;;;;;;;21.41;82.43;100470.13;5000674;28;20545;-52
2023/09/28 09:33:23;;;;;;;0.50;0.30;;;;;;;21.59;82.31;100471.50;5014817;28;20450;-52
2023/09/28 09:35:52;;;;;;;0.40;0.20;;;;;;;21.80;81.73;100462.84;5014522;28;20567;-52
2023/09/28 09:38:24;;;;;;;0.40;0.20;;;;;;;22.00;81.50;100458.66;5011300;28;20431;-52
2023/09/28 09:41:02;;;;;;;0.40;0.20;;;;;;;22.15;80.13;100457.56;5014165;28;20431;-52
2023/09/28 09:43:35;;;;;;;0.43;0.20;;;;;;;22.12;81.25;100457.78;5014586;28;20506;-52
2023/09/28 09:46:06;;;;;;;0.40;0.20;;;;;;;22.37;80.20;100455.00;5000346;28;20468;-51
2023/09/28 09:48:41;;;;;;;0.50;0.30;;;;;;;22.50;78.65;100456.78;5014361;28;20776;-52
2023/09/28 09:51:13;;;;;;;0.50;0.20;;;;;;;22.42;78.56;100460.91;4989647;28;20422;-52
2023/09/28 09:53:41;;;;;;;0.50;0.20;;;;;;;22.32;78.61;100461.72;5014169;28;20806;-52
2023/09/28 09:56:09;;;;;;;0.40;0.20;;;;;;;22.67;78.37;100467.19;5014175;28;20568;-52
2023/09/28 09:58:40;;;;;;;0.40;0.20;;;;;;;22.53;77.83;100461.97;5013971;28;20426;-52
2023/09/28 10:01:13;;;;;;;0.40;0.20;;;;;;;22.67;77.47;100462.66;5014218;28;20426;-52
2023/09/28 10:03:50;;;;;;;0.40;0.20;;;;;;;22.92;75.89;100458.97;5013779;28;20448;-52
2023/09/28 10:06:20;;;;;;;0.40;0.20;;;;;;;22.82;75.64;100454.31;5013760;28;20826;-52
2023/09/28 10:08:49;;;;;;;0.50;0.30;;;;;;;23.04;75.55;100446.31;5013898;28;20489;-52
2023/09/28 10:11:17;;;;;;;0.50;0.20;;;;;;;23.14;75.43;100451.84;5014195;28;20527;-52
2023/09/28 10:13:44;;;;;;;0.43;0.20;;;;;;;23.00;74.25;100461.91;4988336;28;20509;-52
2023/09/28 10:16:15;;;;;;;0.40;0.20;;;;;;;23.04;74.82;100449.00;5007609;28;20467;-52
2023/09/28 10:18:45;;;;;;;0.40;0.20;;;;;;;23.05;74.46;100448.88;5013761;28;20909;-52
2023/09/28 10:21:14;;;;;;;0.50;0.20;;;;;;;23.27;74.19;100449.91;5014024;28;20457;-53
2023/09/28 10:23:40;;;;;;;0.50;0.20;;;;;;;23.22;73.91;100455.69;5013872;28;20531;-52
2023/09/28 10:26:15;;;;;;;0.50;0.20;;;;;;;23.25;73.32;100450.03;5013505;28;21012;-52
2023/09/28 10:29:05;;;;;;;0.50;0.20;;;;;;;23.48;72.83;100455.50;5013593;28;20453;-53
2023/09/28 10:31:40;;;;;;;0.43;0.20;;;;;;;23.71;71.29;100451.84;5000115;28;20424;-52
2023/09/28 10:34:24;;;;;;;0.50;0.30;;;;;;;23.94;70.70;100458.94;4998326;28;20527;-52
2023/09/28 10:37:18;;;;;;;0.43;0.20;;;;;;;23.85;70.82;100457.00;5013299;28;20479;-52
2023/09/28 10:39:54;;;;;;;0.47;0.20;;;;;;;24.08;70.33;100454.25;4988549;28;20458;-52
2023/09/28 10:42:24;;;;;;;0.47;0.20;;;;;;;24.09;68.89;100453.25;5013318;28;20459;-52
2023/09/28 10:44:54;;;;;;;0.50;0.20;;;;;;;24.31;69.53;100453.25;5004967;28;20482;-50
2023/09/28 10:47:21;;;;;;;0.50;0.20;;;;;;;24.35;69.40;100452.00;5009371;28;20473;-50
2023/09/28 10:50:03;;;;;;;0.50;0.20;;;;;;;24.46;67.17;100451.09;5013044;28;20468;-50
2023/09/28 10:52:29;;;;;;;0.50;0.30;;;;;;;24.42;67.89;100447.78;5013224;28;20449;-50
2023/09/28 10:54:56;;;;;;;0.50;0.20;;;;;;;24.28;68.22;100448.03;5012897;28;21084;-50
2023/09/28 10:57:32;;;;;;;0.50;0.20;;;;;;;24.78;65.56;100443.78;5012378;28;21028;-50
2023/09/28 11:00:01;;;;;;;0.50;0.20;;;;;;;24.92;65.98;100455.34;5012710;28;20456;-50
2023/09/28 11:02:27;;;;;;;0.43;0.20;;;;;;;24.95;66.13;100453.25;5013213;28;20466;-50
2023/09/28 11:04:58;;;;;;;0.50;0.20;;;;;;;25.11;66.52;100458.25;5012980;28;20460;-50
2023/09/28 11:07:25;;;;;;;0.50;0.20;;;;;;;25.17;65.17;100449.53;5012724;28;20508;-50
2023/09/28 11:09:53;;;;;;;0.50;0.20;;;;;;;25.36;66.03;100446.97;5012681;28;20471;-50
2023/09/28 11:12:19;;;;;;;0.40;0.20;;;;;;;25.18;64.37;100444.97;5012749;28;20980;-50
2023/09/28 11:14:45;;;;;;;0.50;0.30;;;;;;;25.25;64.04;100440.72;5006013;28;20922;-50
2023/09/28 11:17:12;;;;;;;0.50;0.20;;;;;;;25.44;64.50;100439.97;5012629;28;21048;-50
2023/09/28 11:19:39;;;;;;;0.50;0.20;;;;;;;25.61;64.92;100431.16;5012725;28;20427;-50
2023/09/28 11:22:05;;;;;;;0.50;0.20;;;;;;;25.40;65.44;100426.63;4995398;28;20434;-50
2023/09/28 11:24:32;;;;;;;0.50;0.30;;;;;;;25.36;63.60;100427.03;5012477;28;20456;-49